sensor_id;sensor_type;location;lat;lon;timestamp;P1;durP1;ratioP1;P2;durP2;ratioP2
11618;SDS011;5865;48.776;9.280;2023-06-26T00:00:36;6.50;;;5.60;;
11618;SDS011;5865;48.776;9.280;2023-06-26T00:15:01;6.82;;;5.95;;
11618;SDS011;5865;48.776;9.280;2023-06-26T00:21:48;6.38;;;5.68;;
11618;SDS011;5865;48.776;9.280;2023-06-26T00:24:15;6.30;;;5.70;;
11618;SDS011;5865;48.776;9.280;2023-06-26T00:26:42;6.07;;;5.40;;
11618;SDS011;5865;48.776;9.280;2023-06-26T00:29:09;7.38;;;6.00;;
11618;SDS011;5865;48.776;9.280;2023-06-26T00:31:37;8.25;;;6.35;;
11618;SDS011;5865;48.776;9.280;2023-06-26T00:34:05;6.30;;;5.57;;
11618;SDS011;5865;48.776;9.280;2023-06-26T00:36:32;7.63;;;6.30;;
11618;SDS011;5865;48.776;9.280;2023-06-26T00:38:59;7.70;;;5.82;;
11618;SDS011;5865;48.776;9.280;2023-06-26T00:41:28;6.68;;;5.63;;
11618;SDS011;5865;48.776;9.280;2023-06-26T00:43:55;6.78;;;6.07;;
11618;SDS011;5865;48.776;9.280;2023-06-26T00:46:22;7.18;;;6.20;;
11618;SDS011;5865;48.776;9.280;2023-06-26T00:57:43;6.40;;;5.80;;
11618;SDS011;5865;48.776;9.280;2023-06-26T01:00:12;7.45;;;5.97;;
11618;SDS011;5865;48.776;9.280;2023-06-26T01:03:06;6.80;;;6.10;;
11618;SDS011;5865;48.776;9.280;2023-06-26T01:05:39;6.60;;;5.90;;
11618;SDS011;5865;48.776;9.280;2023-06-26T01:08:12;6.85;;;5.90;;
11618;SDS011;5865;48.776;9.280;2023-06-26T01:10:43;7.03;;;6.10;;
11618;SDS011;5865;48.776;9.280;2023-06-26T01:16:36;6.82;;;5.63;;
11618;SDS011;5865;48.776;9.280;2023-06-26T01:19:24;7.18;;;6.15;;
11618;SDS011;5865;48.776;9.280;2023-06-26T01:22:00;7.20;;;5.93;;
11618;SDS011;5865;48.776;9.280;2023-06-26T01:48:59;6.82;;;6.05;;
11618;SDS011;5865;48.776;9.280;2023-06-26T01:51:45;8.27;;;6.40;;
11618;SDS011;5865;48.776;9.280;2023-06-26T01:54:33;6.40;;;5.80;;
11618;SDS011;5865;48.776;9.280;2023-06-26T01:57:16;7.97;;;6.20;;
11618;SDS011;5865;48.776;9.280;2023-06-26T02:05:24;8.00;;;6.22;;
11618;SDS011;5865;48.776;9.280;2023-06-26T02:08:07;6.40;;;5.60;;
11618;SDS011;5865;48.776;9.280;2023-06-26T02:10:49;8.10;;;6.30;;
11618;SDS011;5865;48.776;9.280;2023-06-26T02:13:34;7.05;;;6.15;;
11618;SDS011;5865;48.776;9.280;2023-06-26T02:16:04;7.65;;;6.25;;
11618;SDS011;5865;48.776;9.280;2023-06-26T02:18:37;6.78;;;6.07;;
11618;SDS011;5865;48.776;9.280;2023-06-26T02:21:23;7.10;;;6.15;;
11618;SDS011;5865;48.776;9.280;2023-06-26T02:24:05;7.30;;;5.90;;
11618;SDS011;5865;48.776;9.280;2023-06-26T02:26:47;6.38;;;5.75;;
11618;SDS011;5865;48.776;9.280;2023-06-26T02:29:32;6.65;;;5.85;;
11618;SDS011;5865;48.776;9.280;2023-06-26T02:32:06;7.03;;;6.10;;
11618;SDS011;5865;48.776;9.280;2023-06-26T02:34:39;6.90;;;6.03;;
11618;SDS011;5865;48.776;9.280;2023-06-26T02:52:19;9.27;;;5.95;;
11618;SDS011;5865;48.776;9.280;2023-06-26T03:11:04;6.95;;;6.07;;
11618;SDS011;5865;48.776;9.280;2023-06-26T03:13:45;6.57;;;5.72;;
11618;SDS011;5865;48.776;9.280;2023-06-26T03:16:27;6.25;;;5.65;;
11618;SDS011;5865;48.776;9.280;2023-06-26T03:19:09;6.53;;;5.93;;
11618;SDS011;5865;48.776;9.280;2023-06-26T03:22:03;6.32;;;5.72;;
11618;SDS011;5865;48.776;9.280;2023-06-26T03:24:44;6.47;;;5.80;;
11618;SDS011;5865;48.776;9.280;2023-06-26T03:30:19;6.38;;;5.65;;
11618;SDS011;5865;48.776;9.280;2023-06-26T03:33:00;7.47;;;5.80;;
11618;SDS011;5865;48.776;9.280;2023-06-26T03:35:44;7.13;;;6.28;;
11618;SDS011;5865;48.776;9.280;2023-06-26T03:38:26;7.95;;;6.05;;
11618;SDS011;5865;48.776;9.280;2023-06-26T03:41:12;6.22;;;5.35;;
11618;SDS011;5865;48.776;9.280;2023-06-26T04:02:49;6.90;;;6.20;;
11618;SDS011;5865;48.776;9.280;2023-06-26T04:05:36;7.97;;;5.90;;
11618;SDS011;5865;48.776;9.280;2023-06-26T04:08:20;7.85;;;6.43;;
11618;SDS011;5865;48.776;9.280;2023-06-26T04:10:53;7.07;;;5.60;;
11618;SDS011;5865;48.776;9.280;2023-06-26T04:13:35;6.47;;;5.78;;
11618;SDS011;5865;48.776;9.280;2023-06-26T04:16:21;6.93;;;5.82;;
11618;SDS011;5865;48.776;9.280;2023-06-26T04:38:00;7.30;;;6.00;;
11618;SDS011;5865;48.776;9.280;2023-06-26T04:40:41;8.35;;;6.40;;
11618;SDS011;5865;48.776;9.280;2023-06-26T04:43:25;6.35;;;5.72;;
11618;SDS011;5865;48.776;9.280;2023-06-26T04:45:57;6.40;;;5.68;;
11618;SDS011;5865;48.776;9.280;2023-06-26T04:48:38;6.93;;;6.20;;
11618;SDS011;5865;48.776;9.280;2023-06-26T04:51:16;7.15;;;6.45;;
11618;SDS011;5865;48.776;9.280;2023-06-26T04:53:57;7.85;;;5.68;;
11618;SDS011;5865;48.776;9.280;2023-06-26T04:56:27;6.45;;;5.82;;
11618;SDS011;5865;48.776;9.280;2023-06-26T04:59:02;6.43;;;5.72;;
11618;SDS011;5865;48.776;9.280;2023-06-26T05:01:34;6.10;;;5.45;;
11618;SDS011;5865;48.776;9.280;2023-06-26T05:04:50;6.90;;;5.65;;
11618;SDS011;5865;48.776;9.280;2023-06-26T05:07:20;6.60;;;5.53;;
11618;SDS011;5865;48.776;9.280;2023-06-26T05:09:48;6.05;;;5.38;;
11618;SDS011;5865;48.776;9.280;2023-06-26T05:12:36;7.00;;;5.90;;
11618;SDS011;5865;48.776;9.280;2023-06-26T05:15:05;7.60;;;6.15;;
11618;SDS011;5865;48.776;9.280;2023-06-26T05:41:57;7.07;;;5.80;;
11618;SDS011;5865;48.776;9.280;2023-06-26T05:44:38;10.02;;;5.63;;
11618;SDS011;5865;48.776;9.280;2023-06-26T05:47:08;6.90;;;6.20;;
11618;SDS011;5865;48.776;9.280;2023-06-26T06:03:43;6.25;;;5.20;;
11618;SDS011;5865;48.776;9.280;2023-06-26T06:06:18;6.88;;;5.35;;
11618;SDS011;5865;48.776;9.280;2023-06-26T06:08:50;6.65;;;5.93;;
11618;SDS011;5865;48.776;9.280;2023-06-26T06:11:31;6.18;;;5.55;;
11618;SDS011;5865;48.776;9.280;2023-06-26T06:14:16;6.95;;;4.82;;
11618;SDS011;5865;48.776;9.280;2023-06-26T06:16:52;6.55;;;5.85;;
11618;SDS011;5865;48.776;9.280;2023-06-26T06:22:34;8.32;;;5.85;;
11618;SDS011;5865;48.776;9.280;2023-06-26T06:25:18;6.18;;;5.35;;
11618;SDS011;5865;48.776;9.280;2023-06-26T06:28:37;6.03;;;5.43;;
11618;SDS011;5865;48.776;9.280;2023-06-26T06:31:07;8.07;;;5.57;;
11618;SDS011;5865;48.776;9.280;2023-06-26T06:33:35;5.72;;;5.22;;
11618;SDS011;5865;48.776;9.280;2023-06-26T06:36:03;7.05;;;5.40;;
11618;SDS011;5865;48.776;9.280;2023-06-26T06:38:34;5.45;;;4.93;;
11618;SDS011;5865;48.776;9.280;2023-06-26T06:41:03;7.25;;;5.60;;
11618;SDS011;5865;48.776;9.280;2023-06-26T06:43:32;6.82;;;4.97;;
11618;SDS011;5865;48.776;9.280;2023-06-26T06:45:59;6.00;;;5.43;;
11618;SDS011;5865;48.776;9.280;2023-06-26T06:48:27;5.85;;;5.22;;
11618;SDS011;5865;48.776;9.280;2023-06-26T06:50:54;6.50;;;5.78;;
11618;SDS011;5865;48.776;9.280;2023-06-26T06:53:22;6.18;;;5.57;;
11618;SDS011;5865;48.776;9.280;2023-06-26T06:55:52;7.07;;;6.30;;
11618;SDS011;5865;48.776;9.280;2023-06-26T06:58:23;6.70;;;6.00;;
11618;SDS011;5865;48.776;9.280;2023-06-26T07:00:51;6.80;;;5.40;;
11618;SDS011;5865;48.776;9.280;2023-06-26T07:03:18;6.93;;;5.60;;
11618;SDS011;5865;48.776;9.280;2023-06-26T07:05:47;6.65;;;5.40;;
11618;SDS011;5865;48.776;9.280;2023-06-26T07:08:15;6.07;;;5.47;;
11618;SDS011;5865;48.776;9.280;2023-06-26T07:10:43;7.30;;;5.65;;
11618;SDS011;5865;48.776;9.280;2023-06-26T07:13:20;6.05;;;5.40;;
11618;SDS011;5865;48.776;9.280;2023-06-26T07:15:48;7.07;;;5.32;;
11618;SDS011;5865;48.776;9.280;2023-06-26T07:18:19;6.40;;;5.57;;
11618;SDS011;5865;48.776;9.280;2023-06-26T07:20:52;6.60;;;5.20;;
11618;SDS011;5865;48.776;9.280;2023-06-26T07:23:19;7.03;;;5.40;;
11618;SDS011;5865;48.776;9.280;2023-06-26T07:26:01;7.80;;;5.38;;
11618;SDS011;5865;48.776;9.280;2023-06-26T07:39:33;6.80;;;5.53;;
11618;SDS011;5865;48.776;9.280;2023-06-26T07:42:03;5.30;;;4.80;;
11618;SDS011;5865;48.776;9.280;2023-06-26T07:44:45;5.22;;;4.72;;
11618;SDS011;5865;48.776;9.280;2023-06-26T07:47:26;6.10;;;5.18;;
11618;SDS011;5865;48.776;9.280;2023-06-26T07:50:29;7.55;;;5.15;;
11618;SDS011;5865;48.776;9.280;2023-06-26T07:53:14;6.43;;;5.25;;
11618;SDS011;5865;48.776;9.280;2023-06-26T07:55:45;5.85;;;5.20;;
11618;SDS011;5865;48.776;9.280;2023-06-26T07:58:12;5.78;;;4.63;;
11618;SDS011;5865;48.776;9.280;2023-06-26T08:00:40;6.13;;;4.90;;
11618;SDS011;5865;48.776;9.280;2023-06-26T08:03:08;8.57;;;5.43;;
11618;SDS011;5865;48.776;9.280;2023-06-26T08:05:36;6.30;;;4.90;;
11618;SDS011;5865;48.776;9.280;2023-06-26T08:08:30;6.00;;;5.05;;
11618;SDS011;5865;48.776;9.280;2023-06-26T08:11:00;5.47;;;4.97;;
11618;SDS011;5865;48.776;9.280;2023-06-26T08:13:31;5.78;;;4.60;;
11618;SDS011;5865;48.776;9.280;2023-06-26T08:16:07;5.35;;;4.85;;
11618;SDS011;5865;48.776;9.280;2023-06-26T08:18:36;7.15;;;5.20;;
11618;SDS011;5865;48.776;9.280;2023-06-26T08:21:03;5.47;;;4.97;;
11618;SDS011;5865;48.776;9.280;2023-06-26T08:23:30;7.70;;;5.22;;
11618;SDS011;5865;48.776;9.280;2023-06-26T08:25:59;5.38;;;4.70;;
11618;SDS011;5865;48.776;9.280;2023-06-26T08:28:27;5.28;;;4.85;;
11618;SDS011;5865;48.776;9.280;2023-06-26T08:30:54;6.18;;;4.90;;
11618;SDS011;5865;48.776;9.280;2023-06-26T08:33:22;5.45;;;4.78;;
11618;SDS011;5865;48.776;9.280;2023-06-26T08:35:49;5.20;;;4.63;;
11618;SDS011;5865;48.776;9.280;2023-06-26T08:38:16;5.95;;;4.57;;
11618;SDS011;5865;48.776;9.280;2023-06-26T08:40:46;6.30;;;4.20;;
11618;SDS011;5865;48.776;9.280;2023-06-26T08:43:15;5.28;;;4.63;;
11618;SDS011;5865;48.776;9.280;2023-06-26T08:45:42;5.43;;;4.72;;
11618;SDS011;5865;48.776;9.280;2023-06-26T08:48:11;5.22;;;4.80;;
11618;SDS011;5865;48.776;9.280;2023-06-26T08:50:39;5.28;;;4.40;;
11618;SDS011;5865;48.776;9.280;2023-06-26T08:53:08;8.13;;;5.15;;
11618;SDS011;5865;48.776;9.280;2023-06-26T08:55:38;4.78;;;4.35;;
11618;SDS011;5865;48.776;9.280;2023-06-26T08:58:08;5.25;;;4.10;;
11618;SDS011;5865;48.776;9.280;2023-06-26T09:00:37;4.80;;;4.30;;
11618;SDS011;5865;48.776;9.280;2023-06-26T09:03:05;5.82;;;4.15;;
11618;SDS011;5865;48.776;9.280;2023-06-26T09:05:32;7.18;;;4.50;;
11618;SDS011;5865;48.776;9.280;2023-06-26T09:08:00;5.80;;;4.50;;
11618;SDS011;5865;48.776;9.280;2023-06-26T09:10:30;6.25;;;4.47;;
11618;SDS011;5865;48.776;9.280;2023-06-26T09:12:57;4.93;;;4.53;;
11618;SDS011;5865;48.776;9.280;2023-06-26T09:15:36;5.13;;;4.15;;
11618;SDS011;5865;48.776;9.280;2023-06-26T09:18:06;5.80;;;4.45;;
11618;SDS011;5865;48.776;9.280;2023-06-26T09:20:34;4.78;;;4.28;;
11618;SDS011;5865;48.776;9.280;2023-06-26T09:23:02;5.63;;;4.20;;
11618;SDS011;5865;48.776;9.280;2023-06-26T09:25:30;4.57;;;4.18;;
11618;SDS011;5865;48.776;9.280;2023-06-26T09:27:58;7.80;;;4.10;;
11618;SDS011;5865;48.776;9.280;2023-06-26T09:30:26;5.85;;;4.68;;
11618;SDS011;5865;48.776;9.280;2023-06-26T09:33:02;4.72;;;4.32;;
11618;SDS011;5865;48.776;9.280;2023-06-26T09:35:41;6.25;;;4.15;;
11618;SDS011;5865;48.776;9.280;2023-06-26T09:38:08;5.53;;;4.35;;
11618;SDS011;5865;48.776;9.280;2023-06-26T09:40:36;6.57;;;4.38;;
11618;SDS011;5865;48.776;9.280;2023-06-26T09:43:04;6.20;;;4.45;;
11618;SDS011;5865;48.776;9.280;2023-06-26T09:45:32;4.72;;;4.00;;
11618;SDS011;5865;48.776;9.280;2023-06-26T09:48:00;4.32;;;3.90;;
11618;SDS011;5865;48.776;9.280;2023-06-26T09:50:31;5.07;;;4.22;;
11618;SDS011;5865;48.776;9.280;2023-06-26T09:53:05;6.25;;;4.20;;
11618;SDS011;5865;48.776;9.280;2023-06-26T09:55:35;6.57;;;4.00;;
11618;SDS011;5865;48.776;9.280;2023-06-26T09:58:03;4.40;;;4.00;;
11618;SDS011;5865;48.776;9.280;2023-06-26T10:00:31;5.63;;;3.90;;
11618;SDS011;5865;48.776;9.280;2023-06-26T10:03:00;5.10;;;4.22;;
11618;SDS011;5865;48.776;9.280;2023-06-26T10:05:28;4.43;;;4.03;;
11618;SDS011;5865;48.776;9.280;2023-06-26T10:07:56;4.20;;;3.80;;
11618;SDS011;5865;48.776;9.280;2023-06-26T10:10:26;6.93;;;4.45;;
11618;SDS011;5865;48.776;9.280;2023-06-26T10:12:57;4.95;;;4.03;;
11618;SDS011;5865;48.776;9.280;2023-06-26T10:15:26;4.63;;;4.18;;
11618;SDS011;5865;48.776;9.280;2023-06-26T10:17:54;6.30;;;4.18;;
11618;SDS011;5865;48.776;9.280;2023-06-26T10:20:23;4.60;;;4.20;;
11618;SDS011;5865;48.776;9.280;2023-06-26T10:28:12;4.70;;;4.30;;
11618;SDS011;5865;48.776;9.280;2023-06-26T10:30:40;6.90;;;4.38;;
11618;SDS011;5865;48.776;9.280;2023-06-26T10:33:08;4.93;;;4.40;;
11618;SDS011;5865;48.776;9.280;2023-06-26T10:35:40;5.45;;;4.60;;
11618;SDS011;5865;48.776;9.280;2023-06-26T10:38:09;5.13;;;4.50;;
11618;SDS011;5865;48.776;9.280;2023-06-26T10:40:41;7.93;;;4.82;;
11618;SDS011;5865;48.776;9.280;2023-06-26T10:52:39;6.53;;;4.75;;
11618;SDS011;5865;48.776;9.280;2023-06-26T10:55:09;6.22;;;5.18;;
11618;SDS011;5865;48.776;9.280;2023-06-26T10:57:37;5.38;;;4.53;;
11618;SDS011;5865;48.776;9.280;2023-06-26T11:00:15;7.18;;;5.07;;
11618;SDS011;5865;48.776;9.280;2023-06-26T11:02:47;6.05;;;4.55;;
11618;SDS011;5865;48.776;9.280;2023-06-26T11:05:23;5.38;;;4.65;;
11618;SDS011;5865;48.776;9.280;2023-06-26T11:08:05;5.47;;;4.63;;
11618;SDS011;5865;48.776;9.280;2023-06-26T11:13:26;5.07;;;4.40;;
11618;SDS011;5865;48.776;9.280;2023-06-26T11:15:55;6.57;;;4.60;;
11618;SDS011;5865;48.776;9.280;2023-06-26T11:18:25;5.22;;;4.47;;
11618;SDS011;5865;48.776;9.280;2023-06-26T11:20:53;5.82;;;4.43;;
11618;SDS011;5865;48.776;9.280;2023-06-26T11:23:23;7.00;;;5.07;;
11618;SDS011;5865;48.776;9.280;2023-06-26T11:25:51;6.25;;;4.60;;
11618;SDS011;5865;48.776;9.280;2023-06-26T11:28:20;5.63;;;5.13;;
11618;SDS011;5865;48.776;9.280;2023-06-26T11:30:48;5.30;;;4.78;;
11618;SDS011;5865;48.776;9.280;2023-06-26T11:33:15;7.22;;;5.00;;
11618;SDS011;5865;48.776;9.280;2023-06-26T11:35:43;5.68;;;4.93;;
11618;SDS011;5865;48.776;9.280;2023-06-26T11:41:26;6.35;;;5.18;;
11618;SDS011;5865;48.776;9.280;2023-06-26T11:43:55;6.05;;;5.10;;
11618;SDS011;5865;48.776;9.280;2023-06-26T11:46:22;5.43;;;4.80;;
11618;SDS011;5865;48.776;9.280;2023-06-26T11:48:49;6.55;;;5.05;;
11618;SDS011;5865;48.776;9.280;2023-06-26T11:51:17;5.80;;;4.78;;
11618;SDS011;5865;48.776;9.280;2023-06-26T11:53:53;6.68;;;4.90;;
11618;SDS011;5865;48.776;9.280;2023-06-26T11:56:22;7.82;;;4.75;;
11618;SDS011;5865;48.776;9.280;2023-06-26T11:59:03;5.97;;;5.10;;
11618;SDS011;5865;48.776;9.280;2023-06-26T12:01:31;6.15;;;4.50;;
11618;SDS011;5865;48.776;9.280;2023-06-26T12:04:09;6.32;;;4.88;;
11618;SDS011;5865;48.776;9.280;2023-06-26T12:06:42;5.68;;;5.18;;
11618;SDS011;5865;48.776;9.280;2023-06-26T12:09:15;7.07;;;4.50;;
11618;SDS011;5865;48.776;9.280;2023-06-26T12:11:46;5.53;;;4.57;;
11618;SDS011;5865;48.776;9.280;2023-06-26T12:14:15;7.47;;;4.63;;
11618;SDS011;5865;48.776;9.280;2023-06-26T12:16:42;7.07;;;4.72;;
11618;SDS011;5865;48.776;9.280;2023-06-26T12:19:09;7.40;;;5.10;;
11618;SDS011;5865;48.776;9.280;2023-06-26T12:21:46;7.25;;;4.75;;
11618;SDS011;5865;48.776;9.280;2023-06-26T12:24:18;5.90;;;5.05;;
11618;SDS011;5865;48.776;9.280;2023-06-26T12:26:49;5.38;;;4.82;;
11618;SDS011;5865;48.776;9.280;2023-06-26T12:29:18;6.03;;;5.00;;
11618;SDS011;5865;48.776;9.280;2023-06-26T12:31:49;5.50;;;4.57;;
11618;SDS011;5865;48.776;9.280;2023-06-26T12:34:19;5.05;;;4.60;;
11618;SDS011;5865;48.776;9.280;2023-06-26T12:36:47;5.28;;;4.80;;
11618;SDS011;5865;48.776;9.280;2023-06-26T12:39:16;5.63;;;4.72;;
11618;SDS011;5865;48.776;9.280;2023-06-26T12:41:45;5.97;;;4.70;;
11618;SDS011;5865;48.776;9.280;2023-06-26T12:44:17;5.47;;;4.93;;
11618;SDS011;5865;48.776;9.280;2023-06-26T12:46:49;5.22;;;4.70;;
11618;SDS011;5865;48.776;9.280;2023-06-26T12:49:16;7.00;;;4.70;;
11618;SDS011;5865;48.776;9.280;2023-06-26T12:51:44;6.13;;;4.82;;
11618;SDS011;5865;48.776;9.280;2023-06-26T12:54:12;6.50;;;4.70;;
11618;SDS011;5865;48.776;9.280;2023-06-26T12:56:39;5.47;;;4.70;;
11618;SDS011;5865;48.776;9.280;2023-06-26T12:59:07;6.57;;;4.85;;
11618;SDS011;5865;48.776;9.280;2023-06-26T13:01:34;5.90;;;4.50;;
11618;SDS011;5865;48.776;9.280;2023-06-26T13:04:02;5.30;;;4.80;;
11618;SDS011;5865;48.776;9.280;2023-06-26T13:06:29;5.72;;;4.53;;
11618;SDS011;5865;48.776;9.280;2023-06-26T13:08:58;6.10;;;4.60;;
11618;SDS011;5865;48.776;9.280;2023-06-26T13:11:25;5.10;;;4.63;;
11618;SDS011;5865;48.776;9.280;2023-06-26T13:13:52;5.68;;;4.82;;
11618;SDS011;5865;48.776;9.280;2023-06-26T13:16:20;5.90;;;4.75;;
11618;SDS011;5865;48.776;9.280;2023-06-26T13:18:47;9.43;;;5.05;;
11618;SDS011;5865;48.776;9.280;2023-06-26T13:21:14;8.23;;;5.30;;
11618;SDS011;5865;48.776;9.280;2023-06-26T13:23:42;6.25;;;4.50;;
11618;SDS011;5865;48.776;9.280;2023-06-26T13:26:10;5.00;;;4.50;;
11618;SDS011;5865;48.776;9.280;2023-06-26T13:28:37;5.68;;;4.85;;
11618;SDS011;5865;48.776;9.280;2023-06-26T13:31:04;5.13;;;4.28;;
11618;SDS011;5865;48.776;9.280;2023-06-26T13:33:33;6.55;;;4.55;;
11618;SDS011;5865;48.776;9.280;2023-06-26T13:36:00;5.43;;;4.63;;
11618;SDS011;5865;48.776;9.280;2023-06-26T13:38:29;5.93;;;4.30;;
11618;SDS011;5865;48.776;9.280;2023-06-26T13:40:57;5.30;;;3.92;;
11618;SDS011;5865;48.776;9.280;2023-06-26T13:43:26;5.32;;;4.47;;
11618;SDS011;5865;48.776;9.280;2023-06-26T13:45:53;5.38;;;4.47;;
11618;SDS011;5865;48.776;9.280;2023-06-26T13:48:21;6.22;;;4.18;;
11618;SDS011;5865;48.776;9.280;2023-06-26T13:50:51;5.80;;;4.32;;
11618;SDS011;5865;48.776;9.280;2023-06-26T13:53:18;4.72;;;4.20;;
11618;SDS011;5865;48.776;9.280;2023-06-26T13:55:45;6.57;;;4.43;;
11618;SDS011;5865;48.776;9.280;2023-06-26T13:58:12;5.15;;;4.45;;
11618;SDS011;5865;48.776;9.280;2023-06-26T14:00:40;4.55;;;4.15;;
11618;SDS011;5865;48.776;9.280;2023-06-26T14:03:09;4.55;;;4.07;;
11618;SDS011;5865;48.776;9.280;2023-06-26T14:05:37;5.32;;;4.32;;
11618;SDS011;5865;48.776;9.280;2023-06-26T14:08:06;5.43;;;3.95;;
11618;SDS011;5865;48.776;9.280;2023-06-26T14:10:35;6.13;;;4.20;;
11618;SDS011;5865;48.776;9.280;2023-06-26T14:13:03;8.88;;;3.78;;
11618;SDS011;5865;48.776;9.280;2023-06-26T14:15:30;4.20;;;3.35;;
11618;SDS011;5865;48.776;9.280;2023-06-26T14:17:57;5.93;;;4.03;;
11618;SDS011;5865;48.776;9.280;2023-06-26T14:20:24;5.38;;;3.85;;
11618;SDS011;5865;48.776;9.280;2023-06-26T14:22:52;7.43;;;4.00;;
11618;SDS011;5865;48.776;9.280;2023-06-26T14:25:21;4.05;;;3.65;;
11618;SDS011;5865;48.776;9.280;2023-06-26T14:27:48;5.13;;;3.58;;
11618;SDS011;5865;48.776;9.280;2023-06-26T14:30:15;3.67;;;3.33;;
11618;SDS011;5865;48.776;9.280;2023-06-26T14:32:42;5.55;;;3.20;;
11618;SDS011;5865;48.776;9.280;2023-06-26T14:35:09;3.97;;;3.50;;
11618;SDS011;5865;48.776;9.280;2023-06-26T14:37:36;3.53;;;3.22;;
11618;SDS011;5865;48.776;9.280;2023-06-26T14:40:05;3.63;;;2.90;;
11618;SDS011;5865;48.776;9.280;2023-06-26T14:42:34;4.10;;;3.15;;
11618;SDS011;5865;48.776;9.280;2023-06-26T14:45:02;3.28;;;2.78;;
11618;SDS011;5865;48.776;9.280;2023-06-26T14:47:29;3.28;;;2.55;;
11618;SDS011;5865;48.776;9.280;2023-06-26T14:49:56;3.13;;;2.83;;
11618;SDS011;5865;48.776;9.280;2023-06-26T14:52:23;3.25;;;2.72;;
11618;SDS011;5865;48.776;9.280;2023-06-26T14:54:50;5.80;;;2.60;;
11618;SDS011;5865;48.776;9.280;2023-06-26T14:57:17;3.13;;;2.80;;
11618;SDS011;5865;48.776;9.280;2023-06-26T14:59:45;4.72;;;2.85;;
11618;SDS011;5865;48.776;9.280;2023-06-26T15:02:13;3.92;;;2.85;;
11618;SDS011;5865;48.776;9.280;2023-06-26T15:04:40;3.78;;;2.70;;
11618;SDS011;5865;48.776;9.280;2023-06-26T15:07:07;4.07;;;3.00;;
11618;SDS011;5865;48.776;9.280;2023-06-26T15:09:34;4.57;;;2.70;;
11618;SDS011;5865;48.776;9.280;2023-06-26T15:12:01;6.97;;;2.90;;
11618;SDS011;5865;48.776;9.280;2023-06-26T15:14:28;5.15;;;2.90;;
11618;SDS011;5865;48.776;9.280;2023-06-26T15:16:56;4.22;;;2.70;;
11618;SDS011;5865;48.776;9.280;2023-06-26T15:19:23;4.32;;;2.97;;
11618;SDS011;5865;48.776;9.280;2023-06-26T15:21:50;3.42;;;2.72;;
11618;SDS011;5865;48.776;9.280;2023-06-26T15:24:17;4.07;;;2.65;;
11618;SDS011;5865;48.776;9.280;2023-06-26T15:26:44;4.25;;;2.90;;
11618;SDS011;5865;48.776;9.280;2023-06-26T15:29:11;7.45;;;3.00;;
11618;SDS011;5865;48.776;9.280;2023-06-26T15:31:40;6.00;;;3.20;;
11618;SDS011;5865;48.776;9.280;2023-06-26T15:34:08;4.22;;;3.10;;
11618;SDS011;5865;48.776;9.280;2023-06-26T15:36:36;5.05;;;3.25;;
11618;SDS011;5865;48.776;9.280;2023-06-26T15:39:03;4.57;;;3.33;;
11618;SDS011;5865;48.776;9.280;2023-06-26T15:41:29;4.22;;;3.28;;
11618;SDS011;5865;48.776;9.280;2023-06-26T15:43:57;5.10;;;3.45;;
11618;SDS011;5865;48.776;9.280;2023-06-26T15:46:24;4.25;;;3.40;;
11618;SDS011;5865;48.776;9.280;2023-06-26T15:48:51;5.18;;;3.97;;
11618;SDS011;5865;48.776;9.280;2023-06-26T15:51:19;7.07;;;6.32;;
11618;SDS011;5865;48.776;9.280;2023-06-26T15:53:46;5.03;;;3.65;;
11618;SDS011;5865;48.776;9.280;2023-06-26T15:56:13;6.00;;;4.10;;
11618;SDS011;5865;48.776;9.280;2023-06-26T15:58:40;4.97;;;4.07;;
11618;SDS011;5865;48.776;9.280;2023-06-26T16:01:09;7.50;;;4.40;;
11618;SDS011;5865;48.776;9.280;2023-06-26T16:03:37;5.72;;;4.03;;
11618;SDS011;5865;48.776;9.280;2023-06-26T16:06:04;5.45;;;4.00;;
11618;SDS011;5865;48.776;9.280;2023-06-26T16:08:33;7.00;;;4.60;;
11618;SDS011;5865;48.776;9.280;2023-06-26T16:11:00;5.60;;;4.82;;
11618;SDS011;5865;48.776;9.280;2023-06-26T16:13:28;4.90;;;4.25;;
11618;SDS011;5865;48.776;9.280;2023-06-26T16:15:55;5.10;;;4.35;;
11618;SDS011;5865;48.776;9.280;2023-06-26T16:18:22;6.65;;;4.65;;
11618;SDS011;5865;48.776;9.280;2023-06-26T16:20:49;5.28;;;4.45;;
11618;SDS011;5865;48.776;9.280;2023-06-26T16:23:16;5.38;;;4.88;;
11618;SDS011;5865;48.776;9.280;2023-06-26T16:25:45;8.23;;;4.80;;
11618;SDS011;5865;48.776;9.280;2023-06-26T16:28:13;5.25;;;4.72;;
11618;SDS011;5865;48.776;9.280;2023-06-26T16:30:40;6.68;;;4.80;;
11618;SDS011;5865;48.776;9.280;2023-06-26T16:33:07;4.93;;;4.32;;
11618;SDS011;5865;48.776;9.280;2023-06-26T16:35:36;5.57;;;4.30;;
11618;SDS011;5865;48.776;9.280;2023-06-26T16:38:03;5.85;;;4.78;;
11618;SDS011;5865;48.776;9.280;2023-06-26T16:40:33;8.15;;;4.88;;
11618;SDS011;5865;48.776;9.280;2023-06-26T16:43:01;9.02;;;4.95;;
11618;SDS011;5865;48.776;9.280;2023-06-26T16:45:28;7.35;;;4.80;;
11618;SDS011;5865;48.776;9.280;2023-06-26T16:47:55;5.28;;;4.70;;
11618;SDS011;5865;48.776;9.280;2023-06-26T16:50:23;5.05;;;4.47;;
11618;SDS011;5865;48.776;9.280;2023-06-26T16:52:49;5.57;;;4.32;;
11618;SDS011;5865;48.776;9.280;2023-06-26T16:55:17;5.15;;;3.83;;
11618;SDS011;5865;48.776;9.280;2023-06-26T16:57:44;5.63;;;3.83;;
11618;SDS011;5865;48.776;9.280;2023-06-26T17:00:12;4.38;;;3.30;;
11618;SDS011;5865;48.776;9.280;2023-06-26T17:02:40;5.28;;;2.50;;
11618;SDS011;5865;48.776;9.280;2023-06-26T17:05:07;4.20;;;2.50;;
11618;SDS011;5865;48.776;9.280;2023-06-26T17:07:36;6.07;;;2.58;;
11618;SDS011;5865;48.776;9.280;2023-06-26T17:10:04;4.47;;;2.00;;
11618;SDS011;5865;48.776;9.280;2023-06-26T17:12:32;3.70;;;2.33;;
11618;SDS011;5865;48.776;9.280;2023-06-26T17:14:59;3.80;;;2.10;;
11618;SDS011;5865;48.776;9.280;2023-06-26T17:17:30;3.85;;;2.30;;
11618;SDS011;5865;48.776;9.280;2023-06-26T17:19:57;4.82;;;2.10;;
11618;SDS011;5865;48.776;9.280;2023-06-26T17:22:25;2.70;;;1.80;;
11618;SDS011;5865;48.776;9.280;2023-06-26T17:24:52;2.45;;;1.90;;
11618;SDS011;5865;48.776;9.280;2023-06-26T17:27:23;3.97;;;1.92;;
11618;SDS011;5865;48.776;9.280;2023-06-26T17:29:52;2.25;;;1.73;;
11618;SDS011;5865;48.776;9.280;2023-06-26T17:32:19;3.67;;;1.42;;
11618;SDS011;5865;48.776;9.280;2023-06-26T17:34:48;2.20;;;1.58;;
11618;SDS011;5865;48.776;9.280;2023-06-26T17:37:15;3.13;;;1.90;;
11618;SDS011;5865;48.776;9.280;2023-06-26T17:39:43;1.50;;;1.38;;
11618;SDS011;5865;48.776;9.280;2023-06-26T17:42:10;3.25;;;1.60;;
11618;SDS011;5865;48.776;9.280;2023-06-26T17:44:37;7.35;;;1.90;;
11618;SDS011;5865;48.776;9.280;2023-06-26T17:47:04;3.13;;;1.60;;
11618;SDS011;5865;48.776;9.280;2023-06-26T17:49:31;3.80;;;1.80;;
11618;SDS011;5865;48.776;9.280;2023-06-26T17:52:00;5.05;;;1.60;;
11618;SDS011;5865;48.776;9.280;2023-06-26T17:54:27;3.55;;;1.70;;
11618;SDS011;5865;48.776;9.280;2023-06-26T17:56:54;2.78;;;1.52;;
11618;SDS011;5865;48.776;9.280;2023-06-26T17:59:21;4.97;;;1.73;;
11618;SDS011;5865;48.776;9.280;2023-06-26T18:01:48;2.53;;;1.60;;
11618;SDS011;5865;48.776;9.280;2023-06-26T18:04:15;2.17;;;1.52;;
11618;SDS011;5865;48.776;9.280;2023-06-26T18:06:42;2.63;;;1.55;;
11618;SDS011;5865;48.776;9.280;2023-06-26T18:09:11;2.45;;;1.60;;
11618;SDS011;5865;48.776;9.280;2023-06-26T18:11:38;5.43;;;1.98;;
11618;SDS011;5865;48.776;9.280;2023-06-26T18:14:05;4.30;;;1.90;;
11618;SDS011;5865;48.776;9.280;2023-06-26T18:16:32;1.92;;;1.65;;
11618;SDS011;5865;48.776;9.280;2023-06-26T18:18:59;2.97;;;1.77;;
11618;SDS011;5865;48.776;9.280;2023-06-26T18:21:26;2.08;;;1.52;;
11618;SDS011;5865;48.776;9.280;2023-06-26T18:23:53;2.20;;;1.55;;
11618;SDS011;5865;48.776;9.280;2023-06-26T18:26:22;2.70;;;1.70;;
11618;SDS011;5865;48.776;9.280;2023-06-26T18:28:49;5.50;;;1.55;;
11618;SDS011;5865;48.776;9.280;2023-06-26T18:33:47;4.03;;;1.85;;
11618;SDS011;5865;48.776;9.280;2023-06-26T18:36:15;2.85;;;1.90;;
11618;SDS011;5865;48.776;9.280;2023-06-26T18:38:59;4.40;;;1.55;;
11618;SDS011;5865;48.776;9.280;2023-06-26T18:41:33;2.83;;;1.63;;
11618;SDS011;5865;48.776;9.280;2023-06-26T18:44:16;1.92;;;1.50;;
11618;SDS011;5865;48.776;9.280;2023-06-26T18:46:57;4.20;;;1.77;;
11618;SDS011;5865;48.776;9.280;2023-06-26T18:49:34;4.35;;;1.60;;